sensor_id;sensor_type;location;lat;lon;timestamp;temperature;humidity
8527;DHT22;4301;48.362;8.478;2022-09-09T00:00:25;13.20;99.90
8527;DHT22;4301;48.362;8.478;2022-09-09T00:02:59;13.10;99.90
8527;DHT22;4301;48.362;8.478;2022-09-09T00:05:32;13.10;99.90
8527;DHT22;4301;48.362;8.478;2022-09-09T00:08:03;13.10;99.90
8527;DHT22;4301;48.362;8.478;2022-09-09T00:10:33;13.00;99.90
8527;DHT22;4301;48.362;8.478;2022-09-09T00:13:13;12.80;99.90
8527;DHT22;4301;48.362;8.478;2022-09-09T00:15:52;12.60;99.90
8527;DHT22;4301;48.362;8.478;2022-09-09T00:18:25;12.50;99.90
8527;DHT22;4301;48.362;8.478;2022-09-09T00:20:59;12.50;99.90
8527;DHT22;4301;48.362;8.478;2022-09-09T00:23:30;12.40;99.90
8527;DHT22;4301;48.362;8.478;2022-09-09T00:26:05;12.50;99.90
8527;DHT22;4301;48.362;8.478;2022-09-09T00:28:39;12.60;99.90
8527;DHT22;4301;48.362;8.478;2022-09-09T00:31:13;12.60;99.90
8527;DHT22;4301;48.362;8.478;2022-09-09T00:33:40;12.50;99.90
8527;DHT22;4301;48.362;8.478;2022-09-09T00:36:13;12.30;99.90
8527;DHT22;4301;48.362;8.478;2022-09-09T00:38:43;12.20;99.90
8527;DHT22;4301;48.362;8.478;2022-09-09T00:41:18;12.10;99.90
8527;DHT22;4301;48.362;8.478;2022-09-09T00:43:56;12.00;99.90
8527;DHT22;4301;48.362;8.478;2022-09-09T00:46:49;12.00;99.90
8527;DHT22;4301;48.362;8.478;2022-09-09T00:49:26;11.80;99.90
8527;DHT22;4301;48.362;8.478;2022-09-09T00:52:06;11.90;99.90
8527;DHT22;4301;48.362;8.478;2022-09-09T00:54:44;11.80;99.90
8527;DHT22;4301;48.362;8.478;2022-09-09T00:57:25;11.80;99.90
8527;DHT22;4301;48.362;8.478;2022-09-09T00:59:59;11.60;99.90
8527;DHT22;4301;48.362;8.478;2022-09-09T01:02:41;11.70;99.90
8527;DHT22;4301;48.362;8.478;2022-09-09T01:05:15;11.50;99.90
8527;DHT22;4301;48.362;8.478;2022-09-09T01:07:48;11.40;99.90
8527;DHT22;4301;48.362;8.478;2022-09-09T01:10:23;11.40;99.90
8527;DHT22;4301;48.362;8.478;2022-09-09T01:12:54;11.40;99.90
8527;DHT22;4301;48.362;8.478;2022-09-09T01:15:26;11.40;99.90
8527;DHT22;4301;48.362;8.478;2022-09-09T01:18:00;11.40;99.90
8527;DHT22;4301;48.362;8.478;2022-09-09T01:20:36;11.40;99.90
8527;DHT22;4301;48.362;8.478;2022-09-09T01:23:33;11.40;99.90
8527;DHT22;4301;48.362;8.478;2022-09-09T01:26:15;11.50;99.90
8527;DHT22;4301;48.362;8.478;2022-09-09T01:28:47;11.50;99.90
8527;DHT22;4301;48.362;8.478;2022-09-09T01:31:18;11.50;99.90
8527;DHT22;4301;48.362;8.478;2022-09-09T01:33:46;11.60;99.90
8527;DHT22;4301;48.362;8.478;2022-09-09T01:36:21;11.60;99.90
8527;DHT22;4301;48.362;8.478;2022-09-09T01:38:52;11.60;99.90
8527;DHT22;4301;48.362;8.478;2022-09-09T01:41:21;11.50;99.90
8527;DHT22;4301;48.362;8.478;2022-09-09T01:43:48;11.60;99.90
8527;DHT22;4301;48.362;8.478;2022-09-09T01:46:16;11.60;99.90
8527;DHT22;4301;48.362;8.478;2022-09-09T01:48:45;11.60;99.90
8527;DHT22;4301;48.362;8.478;2022-09-09T01:51:12;11.60;99.90
8527;DHT22;4301;48.362;8.478;2022-09-09T01:53:41;11.60;99.90
8527;DHT22;4301;48.362;8.478;2022-09-09T01:56:19;11.60;99.90
8527;DHT22;4301;48.362;8.478;2022-09-09T01:58:59;11.60;99.90
8527;DHT22;4301;48.362;8.478;2022-09-09T02:01:39;11.60;99.90
8527;DHT22;4301;48.362;8.478;2022-09-09T02:04:18;11.60;99.90
8527;DHT22;4301;48.362;8.478;2022-09-09T02:06:49;11.70;99.90
8527;DHT22;4301;48.362;8.478;2022-09-09T02:09:22;11.60;99.90
8527;DHT22;4301;48.362;8.478;2022-09-09T02:11:55;11.60;99.90
8527;DHT22;4301;48.362;8.478;2022-09-09T02:14:30;11.70;99.90
8527;DHT22;4301;48.362;8.478;2022-09-09T02:17:01;11.70;99.90
8527;DHT22;4301;48.362;8.478;2022-09-09T02:19:32;11.60;99.90
8527;DHT22;4301;48.362;8.478;2022-09-09T02:22:01;11.60;99.90
8527;DHT22;4301;48.362;8.478;2022-09-09T02:24:31;11.60;99.90
8527;DHT22;4301;48.362;8.478;2022-09-09T02:27:02;11.70;99.90
8527;DHT22;4301;48.362;8.478;2022-09-09T02:29:35;11.60;99.90
8527;DHT22;4301;48.362;8.478;2022-09-09T02:32:06;11.60;99.90
8527;DHT22;4301;48.362;8.478;2022-09-09T02:34:36;11.50;99.90
8527;DHT22;4301;48.362;8.478;2022-09-09T02:37:07;11.50;99.90
8527;DHT22;4301;48.362;8.478;2022-09-09T02:39:34;11.50;99.90
8527;DHT22;4301;48.362;8.478;2022-09-09T02:42:03;11.50;99.90
8527;DHT22;4301;48.362;8.478;2022-09-09T02:44:30;11.50;99.90
8527;DHT22;4301;48.362;8.478;2022-09-09T02:47:11;11.50;99.90
8527;DHT22;4301;48.362;8.478;2022-09-09T02:49:52;11.40;99.90
8527;DHT22;4301;48.362;8.478;2022-09-09T02:52:29;11.30;99.90
8527;DHT22;4301;48.362;8.478;2022-09-09T02:55:04;11.30;99.90
8527;DHT22;4301;48.362;8.478;2022-09-09T02:57:34;11.40;99.90
8527;DHT22;4301;48.362;8.478;2022-09-09T03:00:03;11.50;99.90
8527;DHT22;4301;48.362;8.478;2022-09-09T03:02:32;11.60;99.90
8527;DHT22;4301;48.362;8.478;2022-09-09T03:04:59;11.60;99.90
8527;DHT22;4301;48.362;8.478;2022-09-09T03:07:26;11.60;99.90
8527;DHT22;4301;48.362;8.478;2022-09-09T03:09:54;11.50;99.90
8527;DHT22;4301;48.362;8.478;2022-09-09T03:12:21;11.50;99.90
8527;DHT22;4301;48.362;8.478;2022-09-09T03:14:48;11.50;99.90
8527;DHT22;4301;48.362;8.478;2022-09-09T03:17:15;11.40;99.90
8527;DHT22;4301;48.362;8.478;2022-09-09T03:19:44;11.40;99.90
8527;DHT22;4301;48.362;8.478;2022-09-09T03:22:11;11.40;99.90
8527;DHT22;4301;48.362;8.478;2022-09-09T03:24:39;11.40;99.90
8527;DHT22;4301;48.362;8.478;2022-09-09T03:27:06;11.40;99.90
8527;DHT22;4301;48.362;8.478;2022-09-09T03:29:33;11.30;99.90
8527;DHT22;4301;48.362;8.478;2022-09-09T03:32:00;11.30;99.90
8527;DHT22;4301;48.362;8.478;2022-09-09T03:34:27;11.40;99.90
8527;DHT22;4301;48.362;8.478;2022-09-09T03:36:56;11.40;99.90
8527;DHT22;4301;48.362;8.478;2022-09-09T03:39:23;11.40;99.90
8527;DHT22;4301;48.362;8.478;2022-09-09T03:41:50;11.50;99.90
8527;DHT22;4301;48.362;8.478;2022-09-09T03:44:17;11.50;99.90
8527;DHT22;4301;48.362;8.478;2022-09-09T03:46:44;11.60;99.90
8527;DHT22;4301;48.362;8.478;2022-09-09T03:49:11;11.70;99.90
8527;DHT22;4301;48.362;8.478;2022-09-09T03:51:38;11.80;99.90
8527;DHT22;4301;48.362;8.478;2022-09-09T03:54:07;11.80;99.90
8527;DHT22;4301;48.362;8.478;2022-09-09T03:56:36;11.80;99.90
8527;DHT22;4301;48.362;8.478;2022-09-09T03:59:03;11.90;99.90
8527;DHT22;4301;48.362;8.478;2022-09-09T04:01:31;11.80;99.90
8527;DHT22;4301;48.362;8.478;2022-09-09T04:03:58;11.80;99.90
8527;DHT22;4301;48.362;8.478;2022-09-09T04:06:28;11.80;99.90
8527;DHT22;4301;48.362;8.478;2022-09-09T04:08:55;11.80;99.90
8527;DHT22;4301;48.362;8.478;2022-09-09T04:11:24;11.80;99.90
8527;DHT22;4301;48.362;8.478;2022-09-09T04:13:51;11.80;99.90
8527;DHT22;4301;48.362;8.478;2022-09-09T04:16:18;11.80;99.90
8527;DHT22;4301;48.362;8.478;2022-09-09T04:18:45;11.70;99.90
8527;DHT22;4301;48.362;8.478;2022-09-09T04:21:13;11.60;99.90
8527;DHT22;4301;48.362;8.478;2022-09-09T04:23:41;11.60;99.90
8527;DHT22;4301;48.362;8.478;2022-09-09T04:26:08;11.80;99.90
8527;DHT22;4301;48.362;8.478;2022-09-09T04:28:37;11.80;99.90
8527;DHT22;4301;48.362;8.478;2022-09-09T04:31:05;11.80;99.90
8527;DHT22;4301;48.362;8.478;2022-09-09T04:33:33;11.70;99.90
8527;DHT22;4301;48.362;8.478;2022-09-09T04:36:00;11.80;99.90
8527;DHT22;4301;48.362;8.478;2022-09-09T04:38:28;11.80;99.90
8527;DHT22;4301;48.362;8.478;2022-09-09T04:40:55;11.80;99.90
8527;DHT22;4301;48.362;8.478;2022-09-09T04:43:22;11.80;99.90
8527;DHT22;4301;48.362;8.478;2022-09-09T04:45:53;11.80;99.90
8527;DHT22;4301;48.362;8.478;2022-09-09T04:48:21;11.70;99.90
8527;DHT22;4301;48.362;8.478;2022-09-09T04:50:55;11.80;99.90
8527;DHT22;4301;48.362;8.478;2022-09-09T04:53:23;11.80;99.90
8527;DHT22;4301;48.362;8.478;2022-09-09T04:55:51;11.90;99.90
8527;DHT22;4301;48.362;8.478;2022-09-09T04:58:18;12.00;99.90
8527;DHT22;4301;48.362;8.478;2022-09-09T05:00:47;12.00;99.90
8527;DHT22;4301;48.362;8.478;2022-09-09T05:03:16;12.00;99.90
8527;DHT22;4301;48.362;8.478;2022-09-09T05:05:43;12.10;99.90
8527;DHT22;4301;48.362;8.478;2022-09-09T05:08:10;12.00;99.90
8527;DHT22;4301;48.362;8.478;2022-09-09T05:10:38;12.00;99.90
8527;DHT22;4301;48.362;8.478;2022-09-09T05:13:07;12.00;99.90
8527;DHT22;4301;48.362;8.478;2022-09-09T05:15:34;12.00;99.90
8527;DHT22;4301;48.362;8.478;2022-09-09T05:18:02;12.00;99.90
8527;DHT22;4301;48.362;8.478;2022-09-09T05:20:31;12.10;99.90
8527;DHT22;4301;48.362;8.478;2022-09-09T05:22:58;12.00;99.90
8527;DHT22;4301;48.362;8.478;2022-09-09T05:25:25;12.00;99.90
8527;DHT22;4301;48.362;8.478;2022-09-09T05:27:52;12.10;99.90
8527;DHT22;4301;48.362;8.478;2022-09-09T05:30:20;12.10;99.90
8527;DHT22;4301;48.362;8.478;2022-09-09T05:32:47;12.20;99.90
8527;DHT22;4301;48.362;8.478;2022-09-09T05:35:16;12.30;99.90
8527;DHT22;4301;48.362;8.478;2022-09-09T05:37:46;12.40;99.90
8527;DHT22;4301;48.362;8.478;2022-09-09T05:40:13;12.60;99.90
8527;DHT22;4301;48.362;8.478;2022-09-09T05:42:40;12.60;99.90
8527;DHT22;4301;48.362;8.478;2022-09-09T05:45:09;12.60;99.90
8527;DHT22;4301;48.362;8.478;2022-09-09T05:47:36;12.60;99.90
8527;DHT22;4301;48.362;8.478;2022-09-09T05:50:04;12.70;99.90
8527;DHT22;4301;48.362;8.478;2022-09-09T05:52:32;12.70;99.90
8527;DHT22;4301;48.362;8.478;2022-09-09T05:55:01;12.80;99.90
8527;DHT22;4301;48.362;8.478;2022-09-09T05:57:30;12.90;99.90
8527;DHT22;4301;48.362;8.478;2022-09-09T05:59:57;12.80;99.90
8527;DHT22;4301;48.362;8.478;2022-09-09T06:02:25;12.80;99.90
8527;DHT22;4301;48.362;8.478;2022-09-09T06:04:52;12.80;99.90
8527;DHT22;4301;48.362;8.478;2022-09-09T06:07:20;12.90;99.90
8527;DHT22;4301;48.362;8.478;2022-09-09T06:09:47;13.00;99.90
8527;DHT22;4301;48.362;8.478;2022-09-09T06:12:15;13.00;99.90
8527;DHT22;4301;48.362;8.478;2022-09-09T06:14:43;13.10;99.90
8527;DHT22;4301;48.362;8.478;2022-09-09T06:17:10;13.20;99.90
8527;DHT22;4301;48.362;8.478;2022-09-09T06:19:37;13.20;99.90
8527;DHT22;4301;48.362;8.478;2022-09-09T06:22:04;13.20;99.90
8527;DHT22;4301;48.362;8.478;2022-09-09T06:24:31;13.20;99.90
8527;DHT22;4301;48.362;8.478;2022-09-09T06:26:58;13.40;99.90
8527;DHT22;4301;48.362;8.478;2022-09-09T06:29:27;13.50;99.90
8527;DHT22;4301;48.362;8.478;2022-09-09T06:31:54;13.60;99.90
8527;DHT22;4301;48.362;8.478;2022-09-09T06:34:22;13.60;99.90
8527;DHT22;4301;48.362;8.478;2022-09-09T06:36:49;13.70;99.90
8527;DHT22;4301;48.362;8.478;2022-09-09T06:39:16;13.70;99.90
8527;DHT22;4301;48.362;8.478;2022-09-09T06:41:43;13.80;99.90
8527;DHT22;4301;48.362;8.478;2022-09-09T06:44:10;14.00;99.90
8527;DHT22;4301;48.362;8.478;2022-09-09T06:46:39;14.10;99.90
8527;DHT22;4301;48.362;8.478;2022-09-09T06:49:07;14.20;99.90
8527;DHT22;4301;48.362;8.478;2022-09-09T06:51:37;14.40;99.90
8527;DHT22;4301;48.362;8.478;2022-09-09T06:54:08;14.50;99.90
8527;DHT22;4301;48.362;8.478;2022-09-09T06:56:37;14.60;99.90
8527;DHT22;4301;48.362;8.478;2022-09-09T06:59:07;14.70;99.90
8527;DHT22;4301;48.362;8.478;2022-09-09T07:01:36;14.80;99.90
8527;DHT22;4301;48.362;8.478;2022-09-09T07:04:05;14.80;99.90
8527;DHT22;4301;48.362;8.478;2022-09-09T07:06:34;14.90;99.90
8527;DHT22;4301;48.362;8.478;2022-09-09T07:09:03;15.00;99.90
8527;DHT22;4301;48.362;8.478;2022-09-09T07:11:32;15.20;99.90
8527;DHT22;4301;48.362;8.478;2022-09-09T07:14:00;15.30;99.90
8527;DHT22;4301;48.362;8.478;2022-09-09T07:16:28;15.60;99.90
8527;DHT22;4301;48.362;8.478;2022-09-09T07:18:57;16.00;99.90
8527;DHT22;4301;48.362;8.478;2022-09-09T07:21:27;16.30;99.90
8527;DHT22;4301;48.362;8.478;2022-09-09T07:23:55;16.60;99.90
8527;DHT22;4301;48.362;8.478;2022-09-09T07:26:23;16.80;99.90
8527;DHT22;4301;48.362;8.478;2022-09-09T07:28:51;16.90;99.90
8527;DHT22;4301;48.362;8.478;2022-09-09T07:31:19;16.40;99.90
8527;DHT22;4301;48.362;8.478;2022-09-09T07:33:47;16.20;99.90
8527;DHT22;4301;48.362;8.478;2022-09-09T07:36:16;16.00;99.90
8527;DHT22;4301;48.362;8.478;2022-09-09T07:38:46;16.00;99.90
8527;DHT22;4301;48.362;8.478;2022-09-09T07:41:16;16.00;99.90
8527;DHT22;4301;48.362;8.478;2022-09-09T07:43:45;16.20;99.90
8527;DHT22;4301;48.362;8.478;2022-09-09T07:46:14;16.30;99.90
8527;DHT22;4301;48.362;8.478;2022-09-09T07:48:43;16.30;99.90
8527;DHT22;4301;48.362;8.478;2022-09-09T07:51:13;16.20;99.90
8527;DHT22;4301;48.362;8.478;2022-09-09T07:53:46;16.10;99.90
8527;DHT22;4301;48.362;8.478;2022-09-09T07:56:15;16.10;99.90
8527;DHT22;4301;48.362;8.478;2022-09-09T07:58:45;16.00;99.90
8527;DHT22;4301;48.362;8.478;2022-09-09T08:01:14;16.10;99.90
8527;DHT22;4301;48.362;8.478;2022-09-09T08:03:43;16.50;99.90
8527;DHT22;4301;48.362;8.478;2022-09-09T08:06:11;16.90;99.90
8527;DHT22;4301;48.362;8.478;2022-09-09T08:08:40;17.20;99.90
8527;DHT22;4301;48.362;8.478;2022-09-09T08:11:12;17.40;99.90
8527;DHT22;4301;48.362;8.478;2022-09-09T08:13:40;17.80;99.90
8527;DHT22;4301;48.362;8.478;2022-09-09T08:16:10;18.10;99.90
8527;DHT22;4301;48.362;8.478;2022-09-09T08:18:38;18.30;99.90
8527;DHT22;4301;48.362;8.478;2022-09-09T08:21:11;18.30;99.90
8527;DHT22;4301;48.362;8.478;2022-09-09T08:23:39;18.50;99.90
8527;DHT22;4301;48.362;8.478;2022-09-09T08:26:10;18.60;99.90
8527;DHT22;4301;48.362;8.478;2022-09-09T08:28:38;19.40;99.90
8527;DHT22;4301;48.362;8.478;2022-09-09T08:31:10;19.50;99.90
8527;DHT22;4301;48.362;8.478;2022-09-09T08:33:38;19.80;99.90
8527;DHT22;4301;48.362;8.478;2022-09-09T08:36:06;19.30;99.90
8527;DHT22;4301;48.362;8.478;2022-09-09T08:38:34;19.60;99.90
8527;DHT22;4301;48.362;8.478;2022-09-09T08:41:17;20.00;99.90
8527;DHT22;4301;48.362;8.478;2022-09-09T08:43:47;20.40;99.90
8527;DHT22;4301;48.362;8.478;2022-09-09T08:46:18;20.50;99.90
8527;DHT22;4301;48.362;8.478;2022-09-09T08:48:54;20.40;99.90
8527;DHT22;4301;48.362;8.478;2022-09-09T08:51:26;20.80;99.90
8527;DHT22;4301;48.362;8.478;2022-09-09T08:53:56;21.40;99.90
8527;DHT22;4301;48.362;8.478;2022-09-09T08:56:27;21.50;99.90
8527;DHT22;4301;48.362;8.478;2022-09-09T08:59:00;21.60;99.90
8527;DHT22;4301;48.362;8.478;2022-09-09T09:01:41;21.90;99.90
8527;DHT22;4301;48.362;8.478;2022-09-09T09:04:22;22.20;99.90
8527;DHT22;4301;48.362;8.478;2022-09-09T09:07:01;22.50;99.90
8527;DHT22;4301;48.362;8.478;2022-09-09T09:09:38;22.90;99.90
8527;DHT22;4301;48.362;8.478;2022-09-09T09:12:16;22.70;99.90
8527;DHT22;4301;48.362;8.478;2022-09-09T09:14:44;22.80;99.90
8527;DHT22;4301;48.362;8.478;2022-09-09T09:17:14;22.90;99.90
8527;DHT22;4301;48.362;8.478;2022-09-09T09:19:43;23.10;99.90
8527;DHT22;4301;48.362;8.478;2022-09-09T09:22:17;24.00;99.90
8527;DHT22;4301;48.362;8.478;2022-09-09T09:24:51;24.00;99.90
8527;DHT22;4301;48.362;8.478;2022-09-09T09:27:30;23.60;99.90
8527;DHT22;4301;48.362;8.478;2022-09-09T09:29:59;23.40;99.90
8527;DHT22;4301;48.362;8.478;2022-09-09T09:32:33;22.60;99.90
8527;DHT22;4301;48.362;8.478;2022-09-09T09:35:02;22.30;99.90
8527;DHT22;4301;48.362;8.478;2022-09-09T09:37:33;22.70;99.90
8527;DHT22;4301;48.362;8.478;2022-09-09T09:40:11;23.30;99.90
8527;DHT22;4301;48.362;8.478;2022-09-09T09:42:48;23.10;99.90
8527;DHT22;4301;48.362;8.478;2022-09-09T09:45:18;23.40;99.90
8527;DHT22;4301;48.362;8.478;2022-09-09T09:47:58;22.90;99.90
8527;DHT22;4301;48.362;8.478;2022-09-09T09:50:25;23.20;99.50
8527;DHT22;4301;48.362;8.478;2022-09-09T09:52:56;23.00;98.70
8527;DHT22;4301;48.362;8.478;2022-09-09T09:55:25;23.00;98.50
8527;DHT22;4301;48.362;8.478;2022-09-09T09:58:01;23.40;97.30
8527;DHT22;4301;48.362;8.478;2022-09-09T10:00:29;24.80;94.70
8527;DHT22;4301;48.362;8.478;2022-09-09T10:02:56;24.70;95.80
8527;DHT22;4301;48.362;8.478;2022-09-09T10:05:24;25.30;92.70
8527;DHT22;4301;48.362;8.478;2022-09-09T10:08:03;24.40;92.90
8527;DHT22;4301;48.362;8.478;2022-09-09T10:10:45;25.00;92.90
8527;DHT22;4301;48.362;8.478;2022-09-09T10:13:20;25.10;92.10
8527;DHT22;4301;48.362;8.478;2022-09-09T10:15:58;24.00;91.40
8527;DHT22;4301;48.362;8.478;2022-09-09T10:18:39;23.00;92.30
8527;DHT22;4301;48.362;8.478;2022-09-09T10:21:16;21.70;93.50
8527;DHT22;4301;48.362;8.478;2022-09-09T10:24:02;21.20;94.90
8527;DHT22;4301;48.362;8.478;2022-09-09T10:26:39;20.80;95.60
8527;DHT22;4301;48.362;8.478;2022-09-09T10:29:23;20.10;98.80
8527;DHT22;4301;48.362;8.478;2022-09-09T10:32:02;19.40;99.90
8527;DHT22;4301;48.362;8.478;2022-09-09T10:34:50;19.30;99.90
8527;DHT22;4301;48.362;8.478;2022-09-09T10:37:29;19.10;1.00
8527;DHT22;4301;48.362;8.478;2022-09-09T10:40:02;18.60;99.90
8527;DHT22;4301;48.362;8.478;2022-09-09T10:42:32;18.70;1.00
8527;DHT22;4301;48.362;8.478;2022-09-09T10:45:13;18.60;1.00
8527;DHT22;4301;48.362;8.478;2022-09-09T10:48:07;18.70;1.00
8527;DHT22;4301;48.362;8.478;2022-09-09T10:50:54;19.60;99.90
8527;DHT22;4301;48.362;8.478;2022-09-09T10:53:31;21.10;1.00
8527;DHT22;4301;48.362;8.478;2022-09-09T10:56:04;22.90;99.90
8527;DHT22;4301;48.362;8.478;2022-09-09T10:58:36;24.40;99.90
8527;DHT22;4301;48.362;8.478;2022-09-09T11:01:12;25.40;99.90
8527;DHT22;4301;48.362;8.478;2022-09-09T11:03:42;26.20;73.40
8527;DHT22;4301;48.362;8.478;2022-09-09T11:06:14;26.60;26.80
8527;DHT22;4301;48.362;8.478;2022-09-09T11:08:42;26.30;1.70
8527;DHT22;4301;48.362;8.478;2022-09-09T11:11:12;26.50;1.00
8527;DHT22;4301;48.362;8.478;2022-09-09T11:13:47;25.50;1.00
8527;DHT22;4301;48.362;8.478;2022-09-09T11:16:25;25.50;1.00
8527;DHT22;4301;48.362;8.478;2022-09-09T11:18:58;24.60;1.00
8527;DHT22;4301;48.362;8.478;2022-09-09T11:21:30;23.70;1.00
8527;DHT22;4301;48.362;8.478;2022-09-09T11:24:01;24.90;1.00
8527;DHT22;4301;48.362;8.478;2022-09-09T11:26:33;25.30;1.00
8527;DHT22;4301;48.362;8.478;2022-09-09T11:29:17;26.10;1.00
8527;DHT22;4301;48.362;8.478;2022-09-09T11:32:00;25.40;1.00
8527;DHT22;4301;48.362;8.478;2022-09-09T11:34:39;24.40;1.00
8527;DHT22;4301;48.362;8.478;2022-09-09T11:40:19;21.40;51.10
8527;DHT22;4301;48.362;8.478;2022-09-09T11:42:49;20.60;99.90
8527;DHT22;4301;48.362;8.478;2022-09-09T11:45:23;20.30;1.00
8527;DHT22;4301;48.362;8.478;2022-09-09T11:47:57;20.10;99.90
8527;DHT22;4301;48.362;8.478;2022-09-09T11:50:33;19.60;1.00
8527;DHT22;4301;48.362;8.478;2022-09-09T11:53:17;19.60;1.00
8527;DHT22;4301;48.362;8.478;2022-09-09T11:55:46;19.10;64.40
8527;DHT22;4301;48.362;8.478;2022-09-09T11:58:17;19.00;99.90
8527;DHT22;4301;48.362;8.478;2022-09-09T12:00:47;20.70;1.00
8527;DHT22;4301;48.362;8.478;2022-09-09T12:03:36;23.10;99.90
8527;DHT22;4301;48.362;8.478;2022-09-09T12:06:14;25.20;99.90
8527;DHT22;4301;48.362;8.478;2022-09-09T12:08:44;25.80;1.00
8527;DHT22;4301;48.362;8.478;2022-09-09T12:11:12;25.50;1.00
8527;DHT22;4301;48.362;8.478;2022-09-09T12:13:53;24.30;1.00
8527;DHT22;4301;48.362;8.478;2022-09-09T12:16:33;22.10;39.00
8527;DHT22;4301;48.362;8.478;2022-09-09T12:19:12;21.90;99.80
8527;DHT22;4301;48.362;8.478;2022-09-09T12:21:46;21.20;99.90
8527;DHT22;4301;48.362;8.478;2022-09-09T12:24:22;20.60;99.90
8527;DHT22;4301;48.362;8.478;2022-09-09T12:26:54;20.00;99.90
8527;DHT22;4301;48.362;8.478;2022-09-09T12:29:29;20.30;1.00
8527;DHT22;4301;48.362;8.478;2022-09-09T12:32:03;22.40;99.90
8527;DHT22;4301;48.362;8.478;2022-09-09T12:34:38;23.40;99.90
8527;DHT22;4301;48.362;8.478;2022-09-09T12:37:18;24.50;38.40
8527;DHT22;4301;48.362;8.478;2022-09-09T12:39:53;25.80;1.00
8527;DHT22;4301;48.362;8.478;2022-09-09T12:42:22;26.00;1.00
8527;DHT22;4301;48.362;8.478;2022-09-09T12:44:53;25.90;1.00
8527;DHT22;4301;48.362;8.478;2022-09-09T12:47:22;24.80;1.00
8527;DHT22;4301;48.362;8.478;2022-09-09T12:49:54;24.80;1.00
8527;DHT22;4301;48.362;8.478;2022-09-09T12:52:27;25.60;1.00
8527;DHT22;4301;48.362;8.478;2022-09-09T12:54:56;25.80;1.00
8527;DHT22;4301;48.362;8.478;2022-09-09T12:57:24;26.50;1.00
8527;DHT22;4301;48.362;8.478;2022-09-09T13:00:03;26.00;1.00
8527;DHT22;4301;48.362;8.478;2022-09-09T13:02:31;25.50;1.00
8527;DHT22;4301;48.362;8.478;2022-09-09T13:05:15;26.50;1.00
8527;DHT22;4301;48.362;8.478;2022-09-09T13:07:43;26.70;1.00
8527;DHT22;4301;48.362;8.478;2022-09-09T13:10:11;26.30;1.00
8527;DHT22;4301;48.362;8.478;2022-09-09T13:12:39;26.20;1.00
8527;DHT22;4301;48.362;8.478;2022-09-09T13:15:21;26.10;1.00
8527;DHT22;4301;48.362;8.478;2022-09-09T13:17:52;25.70;1.00
8527;DHT22;4301;48.362;8.478;2022-09-09T13:20:22;26.20;1.00
8527;DHT22;4301;48.362;8.478;2022-09-09T13:22:51;26.10;1.00
8527;DHT22;4301;48.362;8.478;2022-09-09T13:25:22;26.00;1.00
8527;DHT22;4301;48.362;8.478;2022-09-09T13:28:02;27.00;1.00
8527;DHT22;4301;48.362;8.478;2022-09-09T13:30:31;25.90;1.00
8527;DHT22;4301;48.362;8.478;2022-09-09T13:33:20;26.80;1.00
8527;DHT22;4301;48.362;8.478;2022-09-09T13:35:51;26.20;1.00
8527;DHT22;4301;48.362;8.478;2022-09-09T13:38:20;27.60;1.00
8527;DHT22;4301;48.362;8.478;2022-09-09T13:40:56;26.30;1.00
8527;DHT22;4301;48.362;8.478;2022-09-09T13:43:26;26.30;1.00
8527;DHT22;4301;48.362;8.478;2022-09-09T13:45:55;26.40;1.00
8527;DHT22;4301;48.362;8.478;2022-09-09T13:48:24;26.30;1.00
8527;DHT22;4301;48.362;8.478;2022-09-09T13:50:57;26.30;1.00
8527;DHT22;4301;48.362;8.478;2022-09-09T13:53:24;27.40;1.00
8527;DHT22;4301;48.362;8.478;2022-09-09T13:55:51;27.40;1.00
8527;DHT22;4301;48.362;8.478;2022-09-09T13:58:19;27.20;1.00
8527;DHT22;4301;48.362;8.478;2022-09-09T14:00:47;27.10;1.00
8527;DHT22;4301;48.362;8.478;2022-09-09T14:03:15;26.00;1.00
8527;DHT22;4301;48.362;8.478;2022-09-09T14:05:43;25.20;1.00
8527;DHT22;4301;48.362;8.478;2022-09-09T14:08:20;25.70;1.00
8527;DHT22;4301;48.362;8.478;2022-09-09T14:10:48;25.00;1.00
8527;DHT22;4301;48.362;8.478;2022-09-09T14:13:16;25.80;1.00
8527;DHT22;4301;48.362;8.478;2022-09-09T14:15:43;25.70;1.00
8527;DHT22;4301;48.362;8.478;2022-09-09T14:18:11;25.40;1.00
8527;DHT22;4301;48.362;8.478;2022-09-09T14:20:40;24.80;1.00
8527;DHT22;4301;48.362;8.478;2022-09-09T14:23:12;23.10;1.00
8527;DHT22;4301;48.362;8.478;2022-09-09T14:25:42;22.80;1.00
8527;DHT22;4301;48.362;8.478;2022-09-09T14:28:10;22.00;1.00
8527;DHT22;4301;48.362;8.478;2022-09-09T14:30:39;21.90;1.00
8527;DHT22;4301;48.362;8.478;2022-09-09T14:33:07;21.60;1.00
8527;DHT22;4301;48.362;8.478;2022-09-09T14:35:35;22.00;1.00
8527;DHT22;4301;48.362;8.478;2022-09-09T14:38:03;22.60;1.00
8527;DHT22;4301;48.362;8.478;2022-09-09T14:40:33;22.40;1.00
8527;DHT22;4301;48.362;8.478;2022-09-09T14:43:00;21.90;1.00
8527;DHT22;4301;48.362;8.478;2022-09-09T14:45:28;22.20;1.00
8527;DHT22;4301;48.362;8.478;2022-09-09T14:47:55;22.60;1.00
8527;DHT22;4301;48.362;8.478;2022-09-09T14:50:23;22.10;1.00
8527;DHT22;4301;48.362;8.478;2022-09-09T14:52:50;21.20;1.00
8527;DHT22;4301;48.362;8.478;2022-09-09T14:55:17;20.90;1.00
8527;DHT22;4301;48.362;8.478;2022-09-09T14:57:46;20.60;1.00
8527;DHT22;4301;48.362;8.478;2022-09-09T15:00:14;20.50;1.00
8527;DHT22;4301;48.362;8.478;2022-09-09T15:02:41;20.30;1.00
8527;DHT22;4301;48.362;8.478;2022-09-09T15:05:09;20.50;1.00
8527;DHT22;4301;48.362;8.478;2022-09-09T15:07:36;21.00;1.00
8527;DHT22;4301;48.362;8.478;2022-09-09T15:10:04;21.50;1.00
8527;DHT22;4301;48.362;8.478;2022-09-09T15:12:32;21.50;1.00
8527;DHT22;4301;48.362;8.478;2022-09-09T15:15:03;21.60;1.00
8527;DHT22;4301;48.362;8.478;2022-09-09T15:17:30;21.50;1.00
8527;DHT22;4301;48.362;8.478;2022-09-09T15:19:58;21.30;1.00
8527;DHT22;4301;48.362;8.478;2022-09-09T15:22:25;20.80;1.00
8527;DHT22;4301;48.362;8.478;2022-09-09T15:24:52;20.40;1.00
8527;DHT22;4301;48.362;8.478;2022-09-09T15:27:19;20.70;1.00
8527;DHT22;4301;48.362;8.478;2022-09-09T15:29:46;20.50;1.00
8527;DHT22;4301;48.362;8.478;2022-09-09T15:32:15;20.00;1.00
8527;DHT22;4301;48.362;8.478;2022-09-09T15:34:42;19.50;1.00
8527;DHT22;4301;48.362;8.478;2022-09-09T15:37:10;19.20;1.00
8527;DHT22;4301;48.362;8.478;2022-09-09T15:39:39;18.80;1.00
8527;DHT22;4301;48.362;8.478;2022-09-09T15:42:07;19.30;1.00
8527;DHT22;4301;48.362;8.478;2022-09-09T15:44:40;19.90;1.00
8527;DHT22;4301;48.362;8.478;2022-09-09T15:47:11;20.30;1.00
8527;DHT22;4301;48.362;8.478;2022-09-09T15:49:40;21.00;1.00
8527;DHT22;4301;48.362;8.478;2022-09-09T15:52:10;21.00;1.00
8527;DHT22;4301;48.362;8.478;2022-09-09T15:54:37;20.40;1.00
8527;DHT22;4301;48.362;8.478;2022-09-09T15:57:07;20.00;1.00
8527;DHT22;4301;48.362;8.478;2022-09-09T15:59:35;19.20;1.00
8527;DHT22;4301;48.362;8.478;2022-09-09T16:02:03;18.80;1.00
8527;DHT22;4301;48.362;8.478;2022-09-09T16:04:30;18.60;1.00
8527;DHT22;4301;48.362;8.478;2022-09-09T16:07:03;18.60;1.00
8527;DHT22;4301;48.362;8.478;2022-09-09T16:09:31;18.60;10.80
8527;DHT22;4301;48.362;8.478;2022-09-09T16:11:59;18.30;25.00
8527;DHT22;4301;48.362;8.478;2022-09-09T16:14:28;18.30;69.30
8527;DHT22;4301;48.362;8.478;2022-09-09T16:16:59;18.20;97.40
8527;DHT22;4301;48.362;8.478;2022-09-09T16:19:26;18.10;99.90
8527;DHT22;4301;48.362;8.478;2022-09-09T16:21:53;18.00;99.90
8527;DHT22;4301;48.362;8.478;2022-09-09T16:24:22;18.00;99.90
8527;DHT22;4301;48.362;8.478;2022-09-09T16:26:51;18.10;99.90
8527;DHT22;4301;48.362;8.478;2022-09-09T16:29:20;18.00;99.90
8527;DHT22;4301;48.362;8.478;2022-09-09T16:31:48;17.90;99.90
8527;DHT22;4301;48.362;8.478;2022-09-09T16:34:17;17.80;99.90